Time;durP1;ratioP1;P1;durP2;ratioP2;P2;SDS_P1;SDS_P2;PMS_P1;PMS_P2;Temp;Humidity;BMP_temperature;BMP_pressure;BME280_temperature;BME280_humidity;BME280_pressure;Samples;Min_cycle;Max_cycle;Signal;HPM_P1;HPM_P2
2022/12/20 00:00:57;;;;;;;3.03;2.60;;;13.40;99.90;;;;;;5114122;28;20159;-71
2022/12/20 00:03:23;;;;;;;3.07;2.77;;;13.40;99.90;;;;;;5114075;28;20677;-70
2022/12/20 00:05:48;;;;;;;2.97;2.60;;;13.30;99.90;;;;;;5113902;28;20167;-70
2022/12/20 00:08:14;;;;;;;4.13;2.50;;;13.40;99.90;;;;;;5113750;28;20198;-70
2022/12/20 00:10:42;;;;;;;2.77;2.57;;;13.30;99.90;;;;;;5113953;28;20245;-70
2022/12/20 00:13:08;;;;;;;2.97;2.77;;;13.20;99.90;;;;;;5114310;28;20175;-70
2022/12/20 00:15:34;;;;;;;4.00;2.67;;;13.20;99.90;;;;;;5113983;28;20261;-70
2022/12/20 00:18:00;;;;;;;2.83;2.63;;;13.10;99.90;;;;;;5113976;28;20175;-70
2022/12/20 00:20:27;;;;;;;3.00;2.70;;;13.10;99.90;;;;;;5113804;28;20631;-69
2022/12/20 00:22:52;;;;;;;3.03;2.83;;;13.10;99.90;;;;;;5113558;28;20179;-70
2022/12/20 00:25:19;;;;;;;3.40;3.10;;;13.20;99.90;;;;;;5113850;28;20642;-69
2022/12/20 00:27:45;;;;;;;2.93;2.73;;;13.10;99.90;;;;;;5114253;28;20195;-70
2022/12/20 00:30:11;;;;;;;3.10;2.77;;;13.00;99.90;;;;;;5113694;28;20187;-69
2022/12/20 00:32:37;;;;;;;2.73;2.53;;;13.00;99.90;;;;;;5113176;28;20321;-69
2022/12/20 00:35:03;;;;;;;3.00;2.70;;;13.00;99.90;;;;;;5113594;28;20254;-70
2022/12/20 00:37:29;;;;;;;3.43;2.63;;;12.90;99.90;;;;;;5113236;28;20167;-70
2022/12/20 00:39:55;;;;;;;2.97;2.60;;;12.80;99.90;;;;;;5095462;28;20171;-69
2022/12/20 00:42:20;;;;;;;5.47;2.77;;;12.80;99.90;;;;;;5113604;28;20171;-69
2022/12/20 00:44:46;;;;;;;2.90;2.60;;;12.80;99.90;;;;;;5113732;28;20614;-69
2022/12/20 00:47:11;;;;;;;2.93;2.70;;;12.90;99.90;;;;;;5113809;28;20178;-70
2022/12/20 00:49:37;;;;;;;3.03;2.60;;;12.90;99.90;;;;;;5113581;28;20565;-70
2022/12/20 00:52:03;;;;;;;3.13;2.60;;;12.90;99.90;;;;;;5113241;28;20715;-70
2022/12/20 00:54:28;;;;;;;3.07;2.80;;;12.90;99.90;;;;;;5117398;28;20175;-70
2022/12/20 00:56:54;;;;;;;3.07;2.57;;;13.00;99.90;;;;;;5117755;28;20268;-70
2022/12/20 00:59:20;;;;;;;2.80;2.60;;;12.90;99.90;;;;;;5117655;28;20167;-70
2022/12/20 01:01:46;;;;;;;2.77;2.57;;;13.00;99.90;;;;;;5117460;28;20201;-69
2022/12/20 01:04:12;;;;;;;5.53;2.60;;;13.00;99.90;;;;;;5117443;28;20206;-70
2022/12/20 01:06:38;;;;;;;3.53;2.50;;;13.00;99.90;;;;;;5117086;28;20202;-70
2022/12/20 01:09:04;;;;;;;3.10;2.80;;;13.00;99.90;;;;;;5117621;28;20175;-70
2022/12/20 01:11:32;;;;;;;2.70;2.50;;;13.00;99.90;;;;;;5117393;28;20207;-70
2022/12/20 01:14:00;;;;;;;4.53;2.43;;;13.00;99.90;;;;;;5117556;28;20209;-69
2022/12/20 01:16:29;;;;;;;3.10;2.70;;;13.00;99.90;;;;;;5117353;28;20254;-70
2022/12/20 01:18:55;;;;;;;4.00;2.77;;;13.10;99.90;;;;;;5117305;28;20193;-70
2022/12/20 01:21:24;;;;;;;3.00;2.60;;;13.10;99.90;;;;;;5116827;28;20174;-70
2022/12/20 01:23:50;;;;;;;3.97;2.13;;;13.00;99.90;;;;;;5117223;28;20220;-69
2022/12/20 01:26:18;;;;;;;3.03;2.73;;;12.90;99.90;;;;;;5117099;28;20646;-69
2022/12/20 01:28:46;;;;;;;3.53;2.50;;;12.80;99.90;;;;;;5117027;28;20187;-69
2022/12/20 01:31:17;;;;;;;3.03;2.60;;;12.70;99.90;;;;;;5116601;28;20246;-68
2022/12/20 01:33:43;;;;;;;4.53;2.70;;;12.70;99.90;;;;;;5116956;28;20262;-70
2022/12/20 01:36:18;;;;;;;2.90;2.67;;;12.70;99.90;;;;;;5116843;28;20176;-70
2022/12/20 01:38:45;;;;;;;6.30;2.60;;;12.70;99.90;;;;;;5116995;28;20236;-70
2022/12/20 01:41:16;;;;;;;2.43;2.23;;;12.70;99.90;;;;;;5116876;28;20175;-70
2022/12/20 01:43:54;;;;;;;4.33;2.83;;;12.80;99.90;;;;;;5116672;28;20263;-70
2022/12/20 01:46:22;;;;;;;3.87;3.10;;;12.80;99.90;;;;;;5116933;28;20163;-70
2022/12/20 01:48:59;;;;;;;2.80;2.60;;;12.80;99.90;;;;;;5116456;28;20174;-70
2022/12/20 01:51:26;;;;;;;3.33;2.70;;;12.80;99.90;;;;;;5098374;28;20203;-68
2022/12/20 01:54:16;;;;;;;4.80;2.70;;;12.70;99.90;;;;;;5116659;28;20273;-70
2022/12/20 01:56:48;;;;;;;2.70;2.50;;;12.70;99.90;;;;;;5115703;28;20653;-70
2022/12/20 01:59:14;;;;;;;3.83;2.60;;;12.70;99.90;;;;;;5116631;28;20163;-70
2022/12/20 02:01:41;;;;;;;2.90;2.70;;;12.70;99.90;;;;;;5098171;28;20566;-70
2022/12/20 02:04:07;;;;;;;3.20;2.50;;;12.70;99.90;;;;;;5115704;28;20177;-69
2022/12/20 02:06:32;;;;;;;2.87;2.67;;;12.70;99.90;;;;;;5116235;28;20254;-68
2022/12/20 02:09:01;;;;;;;2.77;2.50;;;12.70;99.90;;;;;;5116397;28;20740;-70
2022/12/20 02:11:49;;;;;;;2.93;2.43;;;12.70;99.90;;;;;;5116313;28;20259;-70
2022/12/20 02:14:40;;;;;;;3.03;2.70;;;12.60;99.90;;;;;;5116292;28;20242;-70
2022/12/20 02:17:37;;;;;;;3.50;3.10;;;12.60;99.90;;;;;;5116100;28;20167;-70
2022/12/20 02:20:35;;;;;;;3.20;2.90;;;12.60;99.90;;;;;;5116043;28;20172;-70
2022/12/20 02:23:30;;;;;;;3.37;3.07;;;12.50;99.90;;;;;;5116215;28;20183;-70
2022/12/20 02:26:18;;;;;;;3.27;2.80;;;12.60;99.90;;;;;;5115993;28;20171;-70
2022/12/20 02:29:02;;;;;;;3.03;2.70;;;12.60;99.90;;;;;;5115758;28;20670;-70
2022/12/20 02:31:51;;;;;;;3.80;2.60;;;12.60;99.90;;;;;;5115444;28;20260;-70
2022/12/20 02:34:20;;;;;;;3.73;2.97;;;12.70;99.90;;;;;;5101485;28;20205;-70
2022/12/20 02:36:46;;;;;;;3.30;3.00;;;12.70;99.90;;;;;;5115864;28;20645;-70
2022/12/20 02:39:14;;;;;;;2.80;2.60;;;12.70;99.90;;;;;;5115759;28;20175;-70
2022/12/20 02:41:46;;;;;;;4.77;3.23;;;12.70;99.90;;;;;;5115720;28;20171;-70
2022/12/20 02:47:06;;;;;;;2.50;2.30;;;12.80;99.90;;;;;;5115592;28;20683;-70
2022/12/20 02:49:37;;;;;;;3.50;2.83;;;12.90;99.90;;;;;;5115545;28;20217;-70
2022/12/20 02:52:04;;;;;;;3.10;2.67;;;12.90;99.90;;;;;;5115491;28;20211;-69
2022/12/20 02:54:30;;;;;;;4.50;2.50;;;12.90;99.90;;;;;;5115445;28;20174;-69
2022/12/20 02:57:21;;;;;;;4.03;3.10;;;12.90;99.90;;;;;;5115334;28;20203;-69
2022/12/20 02:59:53;;;;;;;2.93;2.60;;;12.90;99.90;;;;;;5115355;28;20182;-69
2022/12/20 03:02:18;;;;;;;4.17;2.60;;;12.90;99.90;;;;;;5114959;28;20168;-70
2022/12/20 03:04:46;;;;;;;3.57;2.60;;;12.90;99.90;;;;;;5115176;28;20179;-69
2022/12/20 03:07:13;;;;;;;2.63;2.40;;;13.00;99.90;;;;;;5115040;28;20308;-69
2022/12/20 03:09:41;;;;;;;2.67;2.47;;;12.90;99.90;;;;;;5115057;28;20266;-70
2022/12/20 03:12:08;;;;;;;2.70;2.50;;;12.90;99.90;;;;;;5096716;28;20209;-69
2022/12/20 03:14:33;;;;;;;2.60;2.40;;;13.00;99.90;;;;;;5115073;28;20174;-69
2022/12/20 03:17:00;;;;;;;4.43;2.63;;;12.90;99.90;;;;;;5113826;28;20552;-70
2022/12/20 03:19:25;;;;;;;2.73;2.53;;;12.90;99.90;;;;;;5114762;28;20166;-70
2022/12/20 03:21:51;;;;;;;4.87;2.60;;;12.90;99.90;;;;;;5114779;28;20171;-69
2022/12/20 03:24:17;;;;;;;2.90;2.43;;;12.90;99.90;;;;;;5114810;28;20178;-69
2022/12/20 03:26:43;;;;;;;3.27;2.50;;;13.00;99.90;;;;;;5114898;28;20250;-69
2022/12/20 03:29:09;;;;;;;2.30;2.10;;;12.90;99.90;;;;;;5114746;28;20266;-70
2022/12/20 03:31:35;;;;;;;2.87;2.30;;;13.00;99.90;;;;;;5113867;28;20237;-69
2022/12/20 03:34:00;;;;;;;2.47;2.30;;;13.10;99.90;;;;;;5114546;28;20261;-69
2022/12/20 03:36:26;;;;;;;3.80;2.47;;;13.00;99.90;;;;;;5114711;28;20262;-70
2022/12/20 03:38:53;;;;;;;4.63;2.50;;;13.00;99.90;;;;;;5114450;28;20618;-70
2022/12/20 03:41:20;;;;;;;4.70;2.33;;;13.10;99.90;;;;;;5114333;28;20163;-70
2022/12/20 03:43:47;;;;;;;3.57;2.50;;;13.00;99.90;;;;;;5114529;28;20257;-70
2022/12/20 03:46:13;;;;;;;3.93;2.40;;;13.00;99.90;;;;;;5114081;28;20167;-70
2022/12/20 03:48:38;;;;;;;3.70;2.50;;;13.00;99.90;;;;;;5114149;28;20196;-70
2022/12/20 03:51:04;;;;;;;2.80;2.13;;;13.00;99.90;;;;;;5114101;28;20221;-68
2022/12/20 03:53:30;;;;;;;3.33;2.43;;;13.00;99.90;;;;;;5114208;28;20185;-70
2022/12/20 03:55:56;;;;;;;2.90;2.60;;;12.90;99.90;;;;;;5114058;28;20170;-69
2022/12/20 03:58:22;;;;;;;2.20;2.10;;;12.90;99.90;;;;;;5114220;28;20179;-70
2022/12/20 04:00:47;;;;;;;2.43;2.23;;;12.90;99.90;;;;;;5113772;28;20171;-69
2022/12/20 04:03:13;;;;;;;3.40;2.30;;;12.90;99.90;;;;;;5114031;28;20174;-69
2022/12/20 04:05:38;;;;;;;2.80;2.20;;;12.90;99.90;;;;;;5113909;28;20531;-69
2022/12/20 04:08:04;;;;;;;3.07;2.30;;;12.90;99.90;;;;;;5114111;28;20224;-69
2022/12/20 04:10:30;;;;;;;3.00;2.80;;;12.90;99.90;;;;;;5114145;28;20658;-70
2022/12/20 04:12:55;;;;;;;2.83;2.53;;;12.90;99.90;;;;;;5095603;28;20665;-69
2022/12/20 04:15:21;;;;;;;2.90;2.57;;;12.90;99.90;;;;;;5113826;28;20261;-69
2022/12/20 04:17:46;;;;;;;3.30;2.43;;;12.90;99.90;;;;;;5095737;28;20171;-70
2022/12/20 04:20:20;;;;;;;2.23;2.03;;;12.90;99.90;;;;;;5113385;28;20167;-69
2022/12/20 04:22:47;;;;;;;5.00;2.57;;;12.80;99.90;;;;;;5113341;28;20172;-69
2022/12/20 04:25:14;;;;;;;5.33;2.53;;;12.90;99.90;;;;;;5113815;28;20183;-70
2022/12/20 04:27:40;;;;;;;5.50;2.50;;;12.90;99.90;;;;;;5113537;28;20202;-69
2022/12/20 04:30:06;;;;;;;3.17;2.40;;;12.90;99.90;;;;;;5113307;28;20195;-70
2022/12/20 04:32:32;;;;;;;3.13;2.27;;;12.90;99.90;;;;;;5113062;28;20337;-69
2022/12/20 04:34:57;;;;;;;2.70;2.30;;;12.90;99.90;;;;;;5113726;28;20178;-71
2022/12/20 04:37:23;;;;;;;2.93;2.30;;;12.90;99.90;;;;;;5113214;28;20226;-69
2022/12/20 04:39:48;;;;;;;2.40;2.10;;;12.90;99.90;;;;;;5094847;28;20172;-69
2022/12/20 04:42:14;;;;;;;2.57;2.30;;;12.80;99.90;;;;;;5113245;28;20173;-70
2022/12/20 04:44:39;;;;;;;2.60;2.33;;;12.80;99.90;;;;;;5095355;28;20533;-69
2022/12/20 04:47:05;;;;;;;3.00;2.30;;;12.70;99.90;;;;;;5112973;28;20646;-69
2022/12/20 04:49:31;;;;;;;3.00;2.07;;;12.80;99.90;;;;;;5113589;28;20164;-69
2022/12/20 04:53:46;;;;;;;2.47;2.13;;;12.70;99.90;;;;;;5113115;28;20246;-70
2022/12/20 04:54:42;;;;;;;2.60;2.03;;;12.70;99.90;;;;;;5113287;28;20631;-70
2022/12/20 04:57:08;;;;;;;5.30;2.27;;;12.80;99.90;;;;;;5113032;28;20262;-70
2022/12/20 04:59:34;;;;;;;2.47;1.97;;;12.80;99.90;;;;;;5113220;28;20175;-70
2022/12/20 05:02:00;;;;;;;4.30;1.90;;;12.80;99.90;;;;;;5113513;28;20498;-70
2022/12/20 05:04:26;;;;;;;2.87;1.80;;;12.80;99.90;;;;;;5094581;28;20194;-69
2022/12/20 05:06:51;;;;;;;2.57;2.23;;;12.80;99.90;;;;;;5113125;28;20175;-70
2022/12/20 05:09:17;;;;;;;3.13;2.00;;;12.80;99.90;;;;;;5113079;28;20167;-69
2022/12/20 05:11:43;;;;;;;2.73;2.13;;;12.90;99.90;;;;;;5112816;28;20291;-70
2022/12/20 05:14:08;;;;;;;3.10;2.27;;;12.80;99.90;;;;;;5112696;28;20242;-69
2022/12/20 05:16:36;;;;;;;2.17;1.97;;;12.80;99.90;;;;;;5113165;28;20171;-70
2022/12/20 05:19:03;;;;;;;2.87;2.20;;;12.80;99.90;;;;;;5112602;28;20175;-70
2022/12/20 05:26:58;;;;;;;2.80;1.97;;;12.80;99.90;;;;;;5112841;28;20192;-70
2022/12/20 05:29:23;;;;;;;5.93;2.10;;;12.80;99.90;;;;;;5113057;28;20191;-69
2022/12/20 05:31:49;;;;;;;2.30;2.00;;;12.80;99.90;;;;;;5112451;28;20587;-70
2022/12/20 05:34:14;;;;;;;2.47;1.80;;;12.80;99.90;;;;;;5113026;28;20607;-70
2022/12/20 05:36:40;;;;;;;5.10;2.40;;;12.80;99.90;;;;;;5112908;28;20167;-69
2022/12/20 05:39:06;;;;;;;2.77;1.90;;;12.80;99.90;;;;;;5113686;28;20167;-69
2022/12/20 05:41:31;;;;;;;3.80;1.80;;;12.80;99.90;;;;;;5116022;28;20179;-70
2022/12/20 05:43:57;;;;;;;2.53;1.80;;;12.80;99.90;;;;;;5116493;28;20276;-69
2022/12/20 05:46:23;;;;;;;1.83;1.73;;;12.80;99.90;;;;;;5116330;28;20252;-69
2022/12/20 05:48:48;;;;;;;1.73;1.63;;;12.80;99.90;;;;;;5116437;28;20618;-70
2022/12/20 05:51:14;;;;;;;2.30;2.10;;;12.80;99.90;;;;;;5115863;28;20191;-70
2022/12/20 05:53:40;;;;;;;2.10;1.90;;;12.80;99.90;;;;;;5115840;28;20244;-70
2022/12/20 05:56:06;;;;;;;3.50;2.10;;;12.90;99.90;;;;;;5115299;28;20630;-70
2022/12/20 05:58:32;;;;;;;3.10;1.80;;;12.80;99.90;;;;;;5115896;28;20183;-69
2022/12/20 06:01:01;;;;;;;3.77;2.40;;;12.80;99.90;;;;;;5097153;28;20171;-70
2022/12/20 06:03:26;;;;;;;2.07;1.83;;;12.90;99.90;;;;;;5116486;28;20178;-69
2022/12/20 06:05:52;;;;;;;2.13;1.93;;;12.80;99.90;;;;;;5115857;28;20175;-69
2022/12/20 06:08:18;;;;;;;2.87;1.70;;;12.80;99.90;;;;;;5115629;28;20274;-69
2022/12/20 06:10:43;;;;;;;4.17;1.93;;;12.90;99.90;;;;;;5115086;28;20167;-71
2022/12/20 06:13:09;;;;;;;2.97;2.20;;;12.90;99.90;;;;;;5114868;28;20206;-70
2022/12/20 06:15:35;;;;;;;2.10;1.90;;;12.90;99.90;;;;;;5096839;28;20673;-70
2022/12/20 06:18:01;;;;;;;4.00;2.10;;;13.00;99.90;;;;;;5115375;28;20213;-70
2022/12/20 06:20:27;;;;;;;2.57;1.77;;;12.90;99.90;;;;;;5115906;28;20538;-69
2022/12/20 06:22:53;;;;;;;3.60;2.07;;;13.00;99.90;;;;;;5096535;28;20168;-69
2022/12/20 06:25:19;;;;;;;2.77;1.90;;;13.00;99.90;;;;;;5114329;28;20256;-69
2022/12/20 06:27:45;;;;;;;2.67;2.03;;;13.00;99.90;;;;;;5097021;28;20687;-69
2022/12/20 06:30:11;;;;;;;4.57;2.10;;;13.00;99.90;;;;;;5114691;28;20191;-70
2022/12/20 06:32:38;;;;;;;3.33;2.00;;;13.10;99.90;;;;;;5114090;28;20236;-70
2022/12/20 06:35:04;;;;;;;2.23;1.63;;;13.10;99.90;;;;;;5096193;28;20258;-70
2022/12/20 06:37:31;;;;;;;2.17;1.97;;;13.10;99.90;;;;;;5115129;28;20243;-69
2022/12/20 06:39:57;;;;;;;3.27;2.00;;;13.20;99.90;;;;;;5114774;28;20201;-71
2022/12/20 06:42:23;;;;;;;3.97;2.10;;;13.20;99.90;;;;;;5114399;28;20645;-70
2022/12/20 06:44:50;;;;;;;3.73;1.80;;;13.30;99.90;;;;;;5114456;28;20274;-71
2022/12/20 06:47:16;;;;;;;3.20;2.13;;;13.30;99.90;;;;;;5113800;28;20170;-71
2022/12/20 06:49:41;;;;;;;3.00;2.20;;;13.40;99.90;;;;;;5114214;28;20163;-71
2022/12/20 06:52:07;;;;;;;2.90;2.10;;;13.40;99.90;;;;;;5113801;28;20214;-70
2022/12/20 06:54:33;;;;;;;4.10;2.07;;;13.40;99.90;;;;;;5113740;28;20159;-71
2022/12/20 06:56:59;;;;;;;4.40;2.27;;;13.50;99.90;;;;;;5113916;28;20224;-70
2022/12/20 06:59:25;;;;;;;2.47;1.90;;;13.50;99.90;;;;;;5114197;28;20271;-70
2022/12/20 07:01:51;;;;;;;2.23;1.83;;;13.50;99.90;;;;;;5113885;28;20200;-70
2022/12/20 07:04:16;;;;;;;2.07;1.70;;;13.40;99.90;;;;;;5095434;28;20182;-70
2022/12/20 07:06:42;;;;;;;3.63;1.97;;;13.30;99.90;;;;;;5113451;28;20163;-70
2022/12/20 07:09:08;;;;;;;2.13;1.60;;;13.20;99.90;;;;;;5113029;28;20247;-71
2022/12/20 07:11:33;;;;;;;3.50;2.03;;;13.10;99.90;;;;;;5113384;28;20295;-71
2022/12/20 07:13:59;;;;;;;2.97;2.00;;;13.10;99.90;;;;;;5095220;28;20170;-71
2022/12/20 07:16:25;;;;;;;5.10;2.33;;;13.00;99.90;;;;;;5114241;28;20167;-71
2022/12/20 07:18:52;;;;;;;3.50;1.97;;;12.80;99.90;;;;;;5113340;28;20182;-71
2022/12/20 07:21:18;;;;;;;4.33;2.10;;;12.70;99.90;;;;;;5113106;28;20228;-71
2022/12/20 07:23:45;;;;;;;4.23;2.13;;;12.60;99.90;;;;;;5113294;28;20167;-71
2022/12/20 07:26:12;;;;;;;3.50;1.87;;;12.50;99.90;;;;;;5112630;28;20220;-69
2022/12/20 07:28:37;;;;;;;5.50;2.30;;;12.40;99.90;;;;;;5113774;28;20223;-70
2022/12/20 07:31:03;;;;;;;7.47;2.57;;;12.30;99.90;;;;;;5112635;28;20241;-72
2022/12/20 07:33:29;;;;;;;3.13;1.93;;;12.30;99.90;;;;;;5113625;28;20169;-70
2022/12/20 07:36:10;;;;;;;6.17;2.23;;;12.30;99.90;;;;;;5113084;28;20170;-70
2022/12/20 07:38:36;;;;;;;3.33;2.20;;;12.20;99.90;;;;;;5112600;28;20559;-70
2022/12/20 07:41:12;;;;;;;2.93;2.13;;;12.10;99.90;;;;;;5113387;28;20181;-70
2022/12/20 07:43:38;;;;;;;3.80;2.27;;;12.10;99.90;;;;;;5112867;28;20323;-70
2022/12/20 07:46:05;;;;;;;6.30;2.60;;;12.00;99.90;;;;;;5113205;28;20254;-70
2022/12/20 07:48:31;;;;;;;4.70;2.03;;;12.00;99.90;;;;;;5094269;28;20183;-70
2022/12/20 07:51:11;;;;;;;3.47;2.07;;;11.90;99.90;;;;;;5112278;28;20231;-70
2022/12/20 07:53:41;;;;;;;4.67;2.70;;;11.80;99.90;;;;;;5113146;28;20244;-70
2022/12/20 07:56:09;;;;;;;2.40;2.20;;;11.80;99.90;;;;;;5112882;28;20190;-71
2022/12/20 07:58:37;;;;;;;5.33;2.30;;;11.80;99.90;;;;;;5112752;28;20175;-71
2022/12/20 08:01:03;;;;;;;5.23;2.27;;;11.70;99.90;;;;;;5112454;28;20164;-70
2022/12/20 08:03:37;;;;;;;6.27;3.13;;;11.70;99.90;;;;;;5112655;28;20509;-71
2022/12/20 08:06:05;;;;;;;4.03;2.40;;;11.70;99.90;;;;;;5113147;28;20159;-71
2022/12/20 08:08:33;;;;;;;4.90;2.70;;;11.70;99.90;;;;;;5113560;28;20167;-70
2022/12/20 08:11:00;;;;;;;5.33;2.57;;;11.70;99.90;;;;;;5112576;28;20579;-71
2022/12/20 08:13:26;;;;;;;2.40;2.20;;;11.70;99.90;;;;;;5112220;28;20167;-71
2022/12/20 08:15:51;;;;;;;3.47;2.60;;;11.60;99.90;;;;;;5112580;28;20181;-72
2022/12/20 08:18:17;;;;;;;2.60;2.40;;;11.70;99.90;;;;;;5112236;28;20167;-71
2022/12/20 08:20:43;;;;;;;4.10;2.60;;;11.60;99.90;;;;;;5112646;28;20556;-70
2022/12/20 08:23:08;;;;;;;3.03;2.33;;;11.70;99.90;;;;;;5106424;28;20184;-72
2022/12/20 08:25:34;;;;;;;3.30;2.63;;;11.70;99.90;;;;;;5098913;28;20210;-70
2022/12/20 08:28:01;;;;;;;4.33;2.47;;;11.70;99.90;;;;;;5091182;28;20247;-70
2022/12/20 08:30:27;;;;;;;3.20;2.30;;;11.70;99.90;;;;;;5088540;28;20206;-71
2022/12/20 08:32:53;;;;;;;4.70;2.70;;;11.70;99.90;;;;;;5090700;28;20646;-70
2022/12/20 08:35:19;;;;;;;5.90;2.57;;;11.70;99.90;;;;;;5089508;28;20171;-70
2022/12/20 08:37:44;;;;;;;4.43;2.53;;;11.70;99.90;;;;;;5092181;28;20646;-70
2022/12/20 08:40:10;;;;;;;2.77;2.43;;;11.70;99.90;;;;;;5091946;28;20171;-70
2022/12/20 08:42:37;;;;;;;4.63;3.00;;;11.80;99.90;;;;;;5081580;28;20187;-71
2022/12/20 08:45:03;;;;;;;3.30;2.50;;;11.80;99.90;;;;;;5074896;28;20173;-71
2022/12/20 08:47:29;;;;;;;4.90;2.47;;;11.90;99.90;;;;;;5071864;28;20177;-70
2022/12/20 08:49:55;;;;;;;4.83;2.50;;;11.90;99.90;;;;;;5073590;28;20177;-70
2022/12/20 08:52:20;;;;;;;2.97;2.53;;;12.00;99.90;;;;;;5081465;28;20755;-71
2022/12/20 08:54:46;;;;;;;7.30;2.30;;;12.00;99.90;;;;;;5072126;28;20247;-71
2022/12/20 08:57:12;;;;;;;5.00;2.23;;;12.10;99.90;;;;;;5072021;28;20661;-70
2022/12/20 08:59:38;;;;;;;6.17;2.47;;;12.10;99.90;;;;;;5083960;28;20206;-70
2022/12/20 09:02:03;;;;;;;3.93;2.30;;;12.20;99.90;;;;;;5072596;28;20596;-70
2022/12/20 09:04:29;;;;;;;2.87;2.30;;;12.20;99.90;;;;;;5071622;28;20616;-70
2022/12/20 09:06:55;;;;;;;3.03;2.23;;;12.10;99.90;;;;;;5072165;28;20624;-70
2022/12/20 09:09:20;;;;;;;3.37;2.47;;;12.10;99.90;;;;;;5072143;28;20256;-71
2022/12/20 09:11:46;;;;;;;3.90;2.50;;;12.00;99.90;;;;;;5071697;28;20224;-71
2022/12/20 09:14:12;;;;;;;5.37;2.70;;;12.00;99.90;;;;;;5083347;28;20192;-70
2022/12/20 09:16:37;;;;;;;4.47;2.80;;;12.00;99.90;;;;;;5080782;28;20191;-70
2022/12/20 09:19:04;;;;;;;3.80;2.47;;;12.00;99.90;;;;;;5075334;28;20181;-70
2022/12/20 09:21:29;;;;;;;4.13;2.10;;;12.10;99.90;;;;;;5075579;28;20181;-71
2022/12/20 09:23:56;;;;;;;4.37;2.47;;;12.10;99.90;;;;;;5080716;28;20188;-71
2022/12/20 09:26:22;;;;;;;2.70;2.50;;;12.10;99.90;;;;;;5088488;28;20236;-72
2022/12/20 09:28:48;;;;;;;4.77;2.90;;;12.20;99.90;;;;;;5090539;28;20304;-71
2022/12/20 09:31:17;;;;;;;3.83;2.30;;;12.20;99.90;;;;;;5089348;28;20251;-71
2022/12/20 09:33:43;;;;;;;3.40;2.70;;;12.40;99.90;;;;;;5094859;28;20191;-70
2022/12/20 09:36:13;;;;;;;6.70;2.60;;;12.40;99.90;;;;;;5115435;28;20269;-71
2022/12/20 09:38:39;;;;;;;2.93;2.27;;;12.30;99.90;;;;;;5098147;28;20768;-69
2022/12/20 09:41:08;;;;;;;4.00;2.37;;;12.30;99.90;;;;;;5113079;28;20266;-72
2022/12/20 09:43:35;;;;;;;2.70;2.23;;;12.30;99.90;;;;;;5114790;28;20635;-71
2022/12/20 09:46:02;;;;;;;4.07;2.63;;;12.30;99.90;;;;;;5111173;28;20213;-71
2022/12/20 09:48:32;;;;;;;5.53;2.43;;;12.30;99.90;;;;;;5109321;28;20167;-72
2022/12/20 09:51:00;;;;;;;6.23;4.20;;;12.30;99.90;;;;;;5095293;28;20164;-72
2022/12/20 09:53:45;;;;;;;5.63;2.50;;;12.20;99.90;;;;;;5103938;28;20171;-72
2022/12/20 09:56:23;;;;;;;4.90;3.00;;;12.10;99.90;;;;;;5108557;28;20172;-72
2022/12/20 09:58:58;;;;;;;4.57;2.80;;;12.00;99.90;;;;;;5082813;28;20266;-71
2022/12/20 10:01:25;;;;;;;3.87;2.70;;;12.00;99.90;;;;;;5114902;28;20177;-72
2022/12/20 10:03:51;;;;;;;5.60;2.60;;;12.00;99.90;;;;;;5115148;28;20171;-72
2022/12/20 10:06:28;;;;;;;2.70;2.33;;;11.90;99.90;;;;;;5097126;28;20179;-71
2022/12/20 10:09:00;;;;;;;3.50;2.67;;;11.80;99.90;;;;;;5114385;28;20170;-71
2022/12/20 10:11:41;;;;;;;4.17;2.70;;;11.80;99.90;;;;;;5114821;28;20195;-71
2022/12/20 10:14:43;;;;;;;3.87;2.93;;;11.80;99.90;;;;;;5114814;28;20167;-69
2022/12/20 10:17:41;;;;;;;4.80;3.00;;;11.90;99.90;;;;;;5114714;28;20645;-70
2022/12/20 10:20:28;;;;;;;3.10;2.80;;;11.90;99.90;;;;;;5104955;28;20188;-71
2022/12/20 10:23:07;;;;;;;7.20;2.90;;;11.90;99.90;;;;;;5110514;28;20176;-70
2022/12/20 10:25:34;;;;;;;5.43;3.27;;;11.90;99.90;;;;;;5095453;28;20530;-72
2022/12/20 10:28:08;;;;;;;3.40;2.90;;;12.00;99.90;;;;;;5104322;28;20176;-71
2022/12/20 10:30:34;;;;;;;4.73;2.53;;;11.90;99.90;;;;;;5112664;28;20160;-69
2022/12/20 10:33:00;;;;;;;4.50;3.10;;;11.90;99.90;;;;;;5114715;28;20275;-70
2022/12/20 10:35:39;;;;;;;4.63;3.00;;;11.90;99.90;;;;;;5097912;28;20695;-70
2022/12/20 10:38:11;;;;;;;5.20;3.10;;;11.90;99.90;;;;;;5095419;28;20163;-70
2022/12/20 10:40:44;;;;;;;3.63;3.07;;;11.90;99.90;;;;;;5114532;28;20284;-70
2022/12/20 10:43:19;;;;;;;4.40;3.10;;;11.90;99.90;;;;;;5107139;28;20202;-73
2022/12/20 10:46:00;;;;;;;3.33;3.00;;;11.90;99.90;;;;;;5112648;28;20210;-70
2022/12/20 10:48:37;;;;;;;4.20;3.00;;;11.90;99.90;;;;;;5104343;28;20172;-71
2022/12/20 10:51:09;;;;;;;5.67;3.70;;;11.80;99.90;;;;;;5094092;28;20175;-72
2022/12/20 10:53:36;;;;;;;4.63;2.73;;;11.80;99.90;;;;;;5093747;28;20172;-71
2022/12/20 10:56:22;;;;;;;7.13;3.60;;;11.70;99.90;;;;;;5093911;28;21160;-71
2022/12/20 10:59:17;;;;;;;4.60;3.50;;;11.70;99.90;;;;;;5093436;28;20261;-71
2022/12/20 11:01:45;;;;;;;4.13;3.30;;;11.70;99.90;;;;;;5095483;28;20197;-71
2022/12/20 11:04:31;;;;;;;5.77;2.87;;;11.70;99.90;;;;;;5096476;28;20183;-71
2022/12/20 11:06:59;;;;;;;5.23;3.70;;;11.80;99.90;;;;;;5112950;28;20179;-71
2022/12/20 11:09:34;;;;;;;6.20;3.60;;;11.70;99.90;;;;;;5113870;28;20337;-71
2022/12/20 11:12:06;;;;;;;7.07;3.80;;;11.70;99.90;;;;;;5112935;28;20677;-70
2022/12/20 11:14:34;;;;;;;8.67;6.10;;;11.70;99.90;;;;;;5112796;28;20202;-71
2022/12/20 11:17:13;;;;;;;106.30;68.93;;;11.70;99.90;;;;;;5114267;28;20194;-70
2022/12/20 11:20:12;;;;;;;17.60;13.00;;;11.70;99.90;;;;;;5113702;28;20213;-70
2022/12/20 11:23:13;;;;;;;7.33;5.97;;;11.80;99.90;;;;;;5113789;28;20541;-69
2022/12/20 11:26:00;;;;;;;9.33;8.53;;;11.70;99.90;;;;;;5114121;28;20194;-72
2022/12/20 11:29:06;;;;;;;6.87;5.40;;;11.70;99.90;;;;;;5112729;28;20528;-77
2022/12/20 11:31:42;;;;;;;7.10;4.27;;;11.60;99.90;;;;;;5113640;28;20259;-71
2022/12/20 11:34:35;;;;;;;18.17;16.40;;;11.60;99.90;;;;;;5112303;28;20237;-72
2022/12/20 11:37:17;;;;;;;7.33;3.93;;;11.60;99.90;;;;;;5112508;28;20168;-71
2022/12/20 11:40:01;;;;;;;6.70;5.97;;;11.60;99.90;;;;;;5112919;28;20766;-72
2022/12/20 11:42:33;;;;;;;6.80;5.13;;;11.70;99.90;;;;;;5113050;28;20193;-71
2022/12/20 11:45:14;;;;;;;8.83;4.10;;;11.70;99.90;;;;;;5113328;28;20209;-73
2022/12/20 11:48:06;;;;;;;5.80;3.67;;;11.70;99.90;;;;;;5094653;28;20171;-71
2022/12/20 11:51:06;;;;;;;4.10;3.67;;;11.70;99.90;;;;;;5113272;28;20297;-71
2022/12/20 11:53:44;;;;;;;7.50;6.63;;;11.50;99.90;;;;;;5094736;28;20183;-70
2022/12/20 11:56:29;;;;;;;5.47;4.53;;;11.50;99.90;;;;;;5113382;28;20167;-70
2022/12/20 11:59:19;;;;;;;5.90;3.90;;;11.50;99.90;;;;;;5112889;28;20171;-70
2022/12/20 12:02:13;;;;;;;5.83;4.03;;;11.50;99.90;;;;;;5064363;28;20247;-71
2022/12/20 12:04:52;;;;;;;7.90;3.80;;;11.50;99.90;;;;;;5092506;28;20200;-71
2022/12/20 12:07:29;;;;;;;9.83;4.17;;;11.50;99.90;;;;;;5109045;28;20194;-70
2022/12/20 12:10:04;;;;;;;54.67;37.57;;;11.50;99.90;;;;;;5113098;28;20166;-70
2022/12/20 12:12:42;;;;;;;7.43;5.83;;;11.50;99.90;;;;;;5112490;28;20210;-71
2022/12/20 12:15:34;;;;;;;16.13;10.40;;;11.40;99.90;;;;;;5113220;28;20963;-70
2022/12/20 12:18:23;;;;;;;6.50;3.93;;;11.40;99.90;;;;;;5112745;28;20260;-70
2022/12/20 12:21:01;;;;;;;24.83;22.17;;;11.30;99.90;;;;;;5094375;28;20187;-71
2022/12/20 12:23:46;;;;;;;40.90;35.57;;;11.30;99.90;;;;;;5094217;28;20173;-71
2022/12/20 12:26:15;;;;;;;25.27;20.73;;;11.30;99.90;;;;;;5112679;28;20164;-69
2022/12/20 12:28:41;;;;;;;14.03;10.93;;;11.30;99.90;;;;;;5112545;28;20202;-69
2022/12/20 12:31:17;;;;;;;17.53;15.83;;;11.30;99.90;;;;;;5112241;28;20663;-71
2022/12/20 12:33:49;;;;;;;6.90;3.87;;;11.30;99.90;;;;;;5112548;28;20179;-71
2022/12/20 12:36:39;;;;;;;8.53;3.67;;;11.40;99.90;;;;;;5093965;28;20170;-70
2022/12/20 12:39:16;;;;;;;9.00;4.97;;;11.40;99.90;;;;;;5110820;28;20210;-71
2022/12/20 12:42:00;;;;;;;16.63;14.80;;;11.30;99.90;;;;;;5112094;28;20163;-71
2022/12/20 12:44:50;;;;;;;6.03;3.90;;;11.30;99.90;;;;;;5094569;28;20481;-70
2022/12/20 12:47:23;;;;;;;7.13;4.90;;;11.30;99.90;;;;;;5107227;28;20172;-70
2022/12/20 12:49:51;;;;;;;6.00;4.13;;;11.30;99.90;;;;;;5077844;28;20213;-70
2022/12/20 12:52:38;;;;;;;8.37;4.37;;;11.30;99.90;;;;;;5080895;28;20267;-71
2022/12/20 12:55:35;;;;;;;6.63;5.23;;;11.20;99.90;;;;;;5111469;28;20180;-70
2022/12/20 12:58:23;;;;;;;6.03;4.70;;;11.30;99.90;;;;;;5108107;28;20259;-70
2022/12/20 13:00:53;;;;;;;8.37;4.60;;;11.30;99.90;;;;;;5113376;28;20183;-70
2022/12/20 13:03:40;;;;;;;7.07;5.00;;;11.30;99.90;;;;;;5115570;28;20206;-69
2022/12/20 13:06:24;;;;;;;8.33;4.57;;;11.30;99.90;;;;;;5107561;28;20182;-71
2022/12/20 13:08:55;;;;;;;6.67;4.47;;;11.30;99.90;;;;;;5106167;28;20207;-70
2022/12/20 13:11:40;;;;;;;10.70;4.60;;;11.30;99.90;;;;;;5110595;28;20189;-71